Ana Sayfa
METAR-TAF:

METAR-TAF

Havaalanları :

Wallops Flight Facility

Wallops Island, Virginia, Amerika Birleşik Devletleri

Enlem: 37-56-26N, Boylam: 075-27-47W, yükseklik: 12 m

Güncel hava durumu gözlemi

Rapor saat 09:54 UTC de 42 dakika önce yapıldı.
Rüzgar batı/güneybatıdan 5 kt
Sıcaklık 1°C
Nem 47%
Basınç 1017 hPa
Görüş mesafesi: 16.1 km
Açık gökyüzü

METAR: KWAL 280954Z AUTO 24005KT 10SM CLR 01/M09 A3002 RMK AO2 SLP162 T00061094 TSNO

Saat: 05:36 (10:36 UTC)


TAF: eksik

4.000'den fazla havaalanı için hava durumu gözlemleri ve tahminleri (METAR ve TAF raporları).

Kullanılabilir istasyonlar harita üzerinde sarı ve kırmızı noktalarla gösterilir.

İstasyonun adını görmek için fareyi noktanın üzerinde gezdirin.

Sonrasında hava gözlem ve tahminlerini görmek için tıklayın.

Haritayı değiştirmek için: yaklaştırmak için siyah artı işaretli yeşil düğmeye ve uzaklaştırmak için de eksi işaretli düğmeye hızla tıklayın; bitişik haritalar için yeşil okları kullanın.


METAR-TAF: